Clare, Michigan
Current Conditions -  °F | °C
As of 8:58 PM on Saturday 25 Oct 2014 (Local Time) from KMOP Reporting Station
Clear Clear  
Wind Chill: 53°   Ceiling: Unl
Heat Index: 53°   Visibility: 10mi
Dew Point: 33°   Wind: 7mph
Humidity: 46%   Direction: 250°WSW
Pressure: 29.78"   Gusts: NA
Location:  43.82°N, 84.77°W
Report Text: KMOP 260058Z AUTO 25006KT 10SM CLR 12/01 A2978 RMK AO2 T01180006
Loading
Personal Weather Stations






























Interactive Weather Map
Tropical Storm Tracking
New forecast layout! Learn more

10-Day Weather Forecast

Advertisements
Track Severe Weather on mobile